createdAt,value
2023-04-05T00:01:42.541Z,5.28
2023-04-05T00:02:44.567Z,5.47
2023-04-05T00:03:46.885Z,5.56
2023-04-05T00:04:48.966Z,5.17
2023-04-05T00:05:53.056Z,5.57
2023-04-05T00:06:55.378Z,5.28
2023-04-05T00:07:58.660Z,4.99
2023-04-05T00:09:02.499Z,5.44
2023-04-05T00:10:05.718Z,5.66
2023-04-05T00:11:07.730Z,4.99
2023-04-05T00:12:09.709Z,4.99
2023-04-05T00:13:11.636Z,5.01
2023-04-05T00:14:15.704Z,5.12
2023-04-05T00:15:17.702Z,4.89
2023-04-05T00:16:20.115Z,5.04
2023-04-05T00:17:22.333Z,5.27
2023-04-05T00:18:25.044Z,5.14
2023-04-05T00:19:26.921Z,4.62
2023-04-05T00:20:29.659Z,5.59
2023-04-05T00:21:31.557Z,5.43
2023-04-05T00:22:33.432Z,5.39
2023-04-05T00:23:35.376Z,4.69
2023-04-05T00:24:38.231Z,5.13
2023-04-05T00:25:40.247Z,5.16
2023-04-05T00:26:42.241Z,5.37
2023-04-05T00:27:44.469Z,5.15
2023-04-05T00:28:47.330Z,5.19
2023-04-05T00:29:50.158Z,4.76
2023-04-05T00:30:52.395Z,4.71
2023-04-05T00:31:55.530Z,5.42
2023-04-05T00:32:57.998Z,4.11
2023-04-05T00:33:59.935Z,4.21
2023-04-05T00:35:01.940Z,4.02
2023-04-05T00:36:14.072Z,4.13
2023-04-05T00:37:17.277Z,4.29
2023-04-05T00:38:19.271Z,4.41
2023-04-05T00:39:21.251Z,4.59
2023-04-05T00:40:24.546Z,3.51
2023-04-05T00:41:27.296Z,4.24
2023-04-05T00:42:29.188Z,4.41
2023-04-05T00:43:31.622Z,4.38
2023-04-05T00:44:33.797Z,4.33
2023-04-05T00:45:35.738Z,4.97
2023-04-05T00:46:41.153Z,4.67
2023-04-05T00:47:44.496Z,4.36
2023-04-05T00:48:49.286Z,4.41
2023-04-05T00:49:51.869Z,4.93
2023-04-05T00:50:54.428Z,4.39
2023-04-05T00:51:57.021Z,4.49
2023-04-05T00:52:59.331Z,4.29
2023-04-05T00:54:02.202Z,4.52
2023-04-05T00:55:07.434Z,4.39
2023-04-05T00:56:10.048Z,4.23
2023-04-05T00:57:12.759Z,4.27
2023-04-05T00:58:19.357Z,4.34
2023-04-05T00:59:21.460Z,4.38
2023-04-05T01:00:26.308Z,3.85
2023-04-05T01:01:29.742Z,3.81
2023-04-05T01:02:34.943Z,4.33
2023-04-05T01:03:39.055Z,4.04
2023-04-05T01:04:41.916Z,3.46
2023-04-05T01:05:56.734Z,3.70
2023-04-05T01:08:46.906Z,3.78
2023-04-05T01:10:02.013Z,4.27
2023-04-05T01:11:06.318Z,3.73
2023-04-05T01:12:11.277Z,4.26
2023-04-05T01:13:16.012Z,4.04
2023-04-05T01:14:18.521Z,4.04
2023-04-05T01:15:20.534Z,4.05
2023-04-05T01:16:22.559Z,4.11
2023-04-05T01:17:26.838Z,3.87
2023-04-05T01:18:29.080Z,3.78
2023-04-05T01:19:31.216Z,3.29
2023-04-05T01:20:37.238Z,4.01
2023-04-05T01:21:45.853Z,3.74
2023-04-05T01:25:02.821Z,4.18
2023-04-05T01:26:25.523Z,3.41
2023-04-05T01:27:52.130Z,3.81
2023-04-05T01:29:26.904Z,3.97
2023-04-05T01:30:38.667Z,4.14
2023-04-05T01:31:47.521Z,4.11
2023-04-05T01:35:22.079Z,4.22
2023-04-05T01:36:29.215Z,3.98
2023-04-05T01:37:34.436Z,3.55
2023-04-05T01:38:39.388Z,4.49
2023-04-05T01:39:42.550Z,3.92
2023-04-05T01:40:45.324Z,3.32
2023-04-05T01:41:47.666Z,3.79
2023-04-05T01:42:49.555Z,4.27
2023-04-05T01:43:51.452Z,3.20
2023-04-05T01:44:56.492Z,3.33
2023-04-05T01:45:58.398Z,3.28
2023-04-05T01:47:00.527Z,3.48
2023-04-05T01:48:02.941Z,3.35
2023-04-05T01:49:04.975Z,3.48
2023-04-05T01:50:08.684Z,2.72
2023-04-05T01:51:10.664Z,2.54
2023-04-05T01:52:13.489Z,3.03
2023-04-05T01:53:16.887Z,3.52
2023-04-05T01:54:18.983Z,3.24
2023-04-05T01:55:21.014Z,3.23
2023-04-05T01:56:24.024Z,3.15
2023-04-05T01:57:26.160Z,3.03
2023-04-05T01:58:28.417Z,3.17
2023-04-05T01:59:31.159Z,2.93
2023-04-05T02:00:33.366Z,3.14
2023-04-05T02:01:35.395Z,3.57
2023-04-05T02:02:37.367Z,3.79
2023-04-05T02:03:39.859Z,3.25
2023-04-05T02:04:42.052Z,3.66
2023-04-05T02:05:44.370Z,3.66
2023-04-05T02:06:46.353Z,3.11
2023-04-05T02:07:48.464Z,3.38
2023-04-05T02:08:50.489Z,2.86
2023-04-05T02:09:52.603Z,3.05
2023-04-05T02:10:54.675Z,3.31
2023-04-05T02:11:56.650Z,3.24
2023-04-05T02:12:58.640Z,3.52
2023-04-05T02:14:00.686Z,3.73
2023-04-05T02:15:02.871Z,3.87
2023-04-05T02:16:05.350Z,3.64
2023-04-05T02:17:07.453Z,3.36
2023-04-05T02:18:09.521Z,3.85
2023-04-05T02:19:11.926Z,3.64
2023-04-05T02:20:14.292Z,3.85
2023-04-05T02:21:16.552Z,4.19
2023-04-05T02:22:19.100Z,4.65
2023-04-05T02:23:21.041Z,5.31
2023-04-05T02:24:23.077Z,5.47
2023-04-05T02:25:25.360Z,5.11
2023-04-05T02:26:27.442Z,5.04
2023-04-05T02:27:29.824Z,5.57
2023-04-05T02:28:31.721Z,6.83
2023-04-05T02:29:33.652Z,6.71
2023-04-05T02:30:35.619Z,6.50
2023-04-05T02:31:37.633Z,5.45
2023-04-05T02:32:41.551Z,5.61
2023-04-05T02:33:44.360Z,4.98
2023-04-05T02:34:46.325Z,4.19
2023-04-05T02:35:53.744Z,4.23
2023-04-05T02:36:56.031Z,4.02
2023-04-05T02:37:58.094Z,2.89
2023-04-05T02:39:00.128Z,3.63
2023-04-05T02:40:08.698Z,3.10
2023-04-05T02:41:10.691Z,2.83
2023-04-05T02:42:12.694Z,3.41
2023-04-05T02:43:14.929Z,2.97
2023-04-05T02:44:17.119Z,3.17
2023-04-05T02:45:19.074Z,3.45
2023-04-05T02:46:21.249Z,2.77
2023-04-05T02:47:23.257Z,3.07
2023-04-05T02:48:25.205Z,2.70
2023-04-05T02:49:27.156Z,3.17
2023-04-05T02:50:29.559Z,3.23
2023-04-05T02:51:31.530Z,3.53
2023-04-05T02:52:33.503Z,3.40
2023-04-05T02:53:35.494Z,3.03
2023-04-05T02:54:37.552Z,3.47
2023-04-05T02:55:39.835Z,3.36
2023-04-05T02:56:41.911Z,3.33
2023-04-05T02:57:46.355Z,2.86
2023-04-05T02:58:47.966Z,3.26
2023-04-05T02:59:50.661Z,2.87
2023-04-05T03:00:52.899Z,3.07
2023-04-05T03:01:54.882Z,3.26
2023-04-05T03:02:56.939Z,3.12
2023-04-05T03:03:59.201Z,2.70
2023-04-05T03:05:01.279Z,3.37
2023-04-05T03:06:05.135Z,3.21
2023-04-05T03:07:07.027Z,3.50
2023-04-05T03:08:08.930Z,3.23
2023-04-05T03:09:13.295Z,2.77
2023-04-05T03:10:15.957Z,2.92
2023-04-05T03:11:17.920Z,2.70
2023-04-05T03:12:19.938Z,3.09
2023-04-05T03:13:21.865Z,3.11
2023-04-05T03:14:23.830Z,2.83
2023-04-05T03:15:25.822Z,3.00
2023-04-05T03:16:28.299Z,2.77
2023-04-05T03:17:30.229Z,2.99
2023-04-05T03:18:32.778Z,3.42
2023-04-05T03:19:35.095Z,3.01
2023-04-05T03:20:37.331Z,2.75
2023-04-05T03:21:39.217Z,3.19
2023-04-05T03:22:41.209Z,2.89
2023-04-05T03:23:43.552Z,3.09
2023-04-05T03:24:45.423Z,2.62
2023-04-05T03:25:47.346Z,2.67
2023-04-05T03:26:49.577Z,2.76
2023-04-05T03:27:51.435Z,3.63
2023-04-05T03:28:53.381Z,2.75
2023-04-05T03:29:55.236Z,3.01
2023-04-05T03:30:59.157Z,2.95
2023-04-05T03:32:02.201Z,2.79
2023-04-05T03:33:05.492Z,2.95
2023-04-05T03:34:07.945Z,2.85
2023-04-05T03:35:09.959Z,3.51
2023-04-05T03:36:12.309Z,3.20
2023-04-05T03:37:15.245Z,2.67
2023-04-05T03:38:17.517Z,2.83
2023-04-05T03:39:19.401Z,2.03
2023-04-05T03:40:22.703Z,2.71
2023-04-05T03:41:24.595Z,2.99
2023-04-05T03:42:26.612Z,2.49
2023-04-05T03:43:28.662Z,3.10
2023-04-05T03:44:30.529Z,2.93
2023-04-05T03:45:33.068Z,2.30
2023-04-05T03:46:35.323Z,2.66
2023-04-05T03:47:39.279Z,2.87
2023-04-05T03:48:41.260Z,4.51
2023-04-05T03:49:44.286Z,2.44
2023-04-05T03:50:47.096Z,2.95
2023-04-05T03:51:49.004Z,2.95
2023-04-05T03:52:50.903Z,2.66
2023-04-05T03:53:54.041Z,2.49
2023-04-05T03:54:56.289Z,2.81
2023-04-05T03:55:58.177Z,2.46
2023-04-05T03:57:00.677Z,3.04
2023-04-05T03:58:02.898Z,2.65
2023-04-05T03:59:04.824Z,3.21
2023-04-05T04:00:09.014Z,2.53
2023-04-05T04:01:12.041Z,3.22
2023-04-05T04:02:14.016Z,2.41
2023-04-05T04:03:16.038Z,2.41
2023-04-05T04:04:18.025Z,3.18
2023-04-05T04:05:20.403Z,2.61
2023-04-05T04:06:22.707Z,2.31
2023-04-05T04:07:24.991Z,2.69
2023-04-05T04:08:26.927Z,2.61
2023-04-05T04:09:28.790Z,3.03
2023-04-05T04:10:31.791Z,2.34
2023-04-05T04:11:33.680Z,2.44
2023-04-05T04:12:36.058Z,2.69
2023-04-05T04:13:38.435Z,2.77
2023-04-05T04:14:40.412Z,2.71
2023-04-05T04:15:42.509Z,2.32
2023-04-05T04:16:45.073Z,2.21
2023-04-05T04:17:47.133Z,2.81
2023-04-05T04:18:49.231Z,2.52
2023-04-05T04:19:51.166Z,2.73
2023-04-05T04:20:53.148Z,2.97
2023-04-05T04:21:55.025Z,2.33
2023-04-05T04:22:59.085Z,2.11
2023-04-05T04:24:01.173Z,2.94
2023-04-05T04:25:04.530Z,2.91
2023-04-05T04:26:06.658Z,3.02
2023-04-05T04:27:08.527Z,3.57
2023-04-05T04:28:10.819Z,3.15
2023-04-05T04:29:13.497Z,3.29
2023-04-05T04:30:15.915Z,3.46
2023-04-05T04:31:18.557Z,4.05
2023-04-05T04:32:20.524Z,3.36
2023-04-05T04:33:22.488Z,3.43
2023-04-05T04:34:24.742Z,3.31
2023-04-05T04:35:28.381Z,3.02
2023-04-05T04:36:31.697Z,3.73
2023-04-05T04:37:33.736Z,3.66
2023-04-05T04:38:35.723Z,3.60
2023-04-05T04:39:37.980Z,3.23
2023-04-05T04:40:40.142Z,3.29
2023-04-05T04:41:44.501Z,3.63
2023-04-05T04:42:46.472Z,3.59
2023-04-05T04:43:50.277Z,3.09
2023-04-05T04:44:52.270Z,3.27
2023-04-05T04:45:54.180Z,3.70
2023-04-05T04:46:56.753Z,3.59
2023-04-05T04:47:58.698Z,3.80
2023-04-05T04:49:01.408Z,3.10
2023-04-05T04:50:04.827Z,2.55
2023-04-05T04:51:07.383Z,3.17
2023-04-05T04:52:09.257Z,2.69
2023-04-05T04:53:12.024Z,2.15
2023-04-05T04:54:14.252Z,2.33
2023-04-05T04:55:16.098Z,2.23
2023-04-05T04:56:18.247Z,2.23
2023-04-05T04:57:20.110Z,2.24
2023-04-05T04:58:22.091Z,2.16
2023-04-05T04:59:24.088Z,1.95
2023-04-05T05:00:26.244Z,2.25
2023-04-05T05:01:28.463Z,2.28
2023-04-05T05:02:31.490Z,2.22
2023-04-05T05:03:34.645Z,2.30
2023-04-05T05:04:36.553Z,2.27
2023-04-05T05:05:46.109Z,2.70
2023-04-05T05:06:51.961Z,2.29
2023-04-05T05:07:54.750Z,2.46
2023-04-05T05:08:56.650Z,2.19
2023-04-05T05:09:58.706Z,2.27
2023-04-05T05:11:00.881Z,2.37
2023-04-05T05:12:03.049Z,2.24
2023-04-05T05:13:05.060Z,2.53
2023-04-05T05:14:07.194Z,3.37
2023-04-05T05:15:10.620Z,2.33
2023-04-05T05:16:14.382Z,1.72
2023-04-05T05:17:16.318Z,1.79
2023-04-05T05:18:19.300Z,1.78
2023-04-05T05:19:21.201Z,2.37
2023-04-05T05:22:38.042Z,2.27
2023-04-05T05:23:40.064Z,1.87
2023-04-05T05:24:43.671Z,2.11
2023-04-05T05:25:45.563Z,2.04
2023-04-05T05:26:47.628Z,1.96
2023-04-05T05:27:50.482Z,1.92
2023-04-05T05:28:52.400Z,2.10
2023-04-05T05:29:54.760Z,2.05
2023-04-05T05:30:56.884Z,2.23
2023-04-05T05:31:59.296Z,2.49
2023-04-05T05:33:01.304Z,2.10
2023-04-05T05:34:03.472Z,1.83
2023-04-05T05:35:10.224Z,2.41
2023-04-05T05:36:12.870Z,2.52
2023-04-05T05:37:15.145Z,2.53
2023-04-05T05:38:18.150Z,3.24
2023-04-05T05:39:20.800Z,4.26
2023-04-05T05:40:23.235Z,6.35
2023-04-05T05:41:25.897Z,5.95
2023-04-05T05:42:27.789Z,6.63
2023-04-05T05:43:29.679Z,6.19
2023-04-05T05:44:32.039Z,4.78
2023-04-05T05:45:35.166Z,4.22
2023-04-05T05:46:37.352Z,4.37
2023-04-05T05:47:39.440Z,4.45
2023-04-05T05:48:41.563Z,3.35
2023-04-05T05:49:43.483Z,3.67
2023-04-05T05:50:45.568Z,2.75
2023-04-05T05:51:47.435Z,2.15
2023-04-05T05:52:49.960Z,2.52
2023-04-05T05:53:51.953Z,2.52
2023-04-05T05:54:53.833Z,2.35
2023-04-05T05:55:55.870Z,2.75
2023-04-05T05:56:57.845Z,3.37
2023-04-05T05:57:59.840Z,2.09
2023-04-05T05:59:02.700Z,2.35
2023-04-05T06:00:06.794Z,2.56
2023-04-05T06:01:08.949Z,2.28
2023-04-05T06:02:11.464Z,2.27
2023-04-05T06:03:13.568Z,2.45
2023-04-05T06:04:16.747Z,2.45
2023-04-05T06:05:19.375Z,2.54
2023-04-05T06:06:23.047Z,2.25
2023-04-05T06:07:25.277Z,2.03
2023-04-05T06:08:28.659Z,2.39
2023-04-05T06:09:30.653Z,2.39
2023-04-05T06:10:35.512Z,2.91
2023-04-05T06:11:46.338Z,2.39
2023-04-05T06:12:41.309Z,2.18
2023-04-05T06:13:43.955Z,2.14
2023-04-05T06:14:46.496Z,2.04
2023-04-05T06:15:49.045Z,2.28
2023-04-05T06:16:51.648Z,2.22
2023-04-05T06:17:55.157Z,2.27
2023-04-05T06:18:57.557Z,1.81
2023-04-05T06:20:00.104Z,2.12
2023-04-05T06:21:02.373Z,1.51
2023-04-05T06:22:04.411Z,2.36
2023-04-05T06:23:07.261Z,2.35
2023-04-05T06:24:09.243Z,1.99
2023-04-05T06:25:11.232Z,2.07
2023-04-05T06:26:19.884Z,2.16
2023-04-05T06:27:21.866Z,2.01
2023-04-05T06:28:24.704Z,2.31
2023-04-05T06:29:26.660Z,2.29
2023-04-05T06:30:28.931Z,1.92
2023-04-05T06:31:33.030Z,2.10
2023-04-05T06:32:35.221Z,1.87
2023-04-05T06:33:37.188Z,1.97
2023-04-05T06:34:39.059Z,1.69
2023-04-05T06:35:40.956Z,2.15
2023-04-05T06:36:43.411Z,2.16
2023-04-05T06:37:45.391Z,2.21
2023-04-05T06:38:47.342Z,1.93
2023-04-05T06:39:49.191Z,2.33
2023-04-05T06:40:51.175Z,2.10
2023-04-05T06:41:53.059Z,2.49
2023-04-05T06:42:54.927Z,2.31
2023-04-05T06:43:57.631Z,2.78
2023-04-05T06:44:59.576Z,3.09
2023-04-05T06:46:01.456Z,2.42
2023-04-05T06:47:03.527Z,2.77
2023-04-05T06:48:05.790Z,2.59
2023-04-05T06:49:07.723Z,3.11
2023-04-05T06:50:11.328Z,3.47
2023-04-05T06:51:14.596Z,2.87
2023-04-05T06:52:17.698Z,3.49
2023-04-05T06:53:19.588Z,3.21
2023-04-05T06:54:21.457Z,3.85
2023-04-05T06:55:23.306Z,3.66
2023-04-05T06:56:25.477Z,3.11
2023-04-05T06:57:27.840Z,2.89
2023-04-05T06:58:29.996Z,2.71
2023-04-05T06:59:32.150Z,2.84
2023-04-05T07:00:34.422Z,2.63
2023-04-05T07:01:36.429Z,2.01
2023-04-05T07:02:39.534Z,2.33
2023-04-05T07:03:41.487Z,2.05
2023-04-05T07:04:43.530Z,1.97
2023-04-05T07:05:54.054Z,2.84
2023-04-05T07:06:56.303Z,2.45
2023-04-05T07:07:59.374Z,2.30
2023-04-05T07:09:01.827Z,2.21
2023-04-05T07:10:06.375Z,2.57
2023-04-05T07:11:08.388Z,2.79
2023-04-05T07:12:11.135Z,2.53
2023-04-05T07:13:13.447Z,2.77
2023-04-05T07:14:15.439Z,2.71
2023-04-05T07:15:17.388Z,2.93
2023-04-05T07:16:19.490Z,2.84
2023-04-05T07:17:21.534Z,2.69
2023-04-05T07:18:23.925Z,2.66
2023-04-05T07:19:26.098Z,2.83
2023-04-05T07:20:28.032Z,2.25
2023-04-05T07:21:29.901Z,3.04
2023-04-05T07:22:33.498Z,2.57
2023-04-05T07:23:35.571Z,3.44
2023-04-05T07:24:37.527Z,3.39
2023-04-05T07:25:40.710Z,3.11
2023-04-05T07:26:42.807Z,2.99
2023-04-05T07:27:44.800Z,2.99
2023-04-05T07:28:47.864Z,3.16
2023-04-05T07:29:50.142Z,3.15
2023-04-05T07:30:52.175Z,3.01
2023-04-05T07:31:54.103Z,3.51
2023-04-05T07:32:56.187Z,3.12
2023-04-05T07:34:00.078Z,3.53
2023-04-05T07:35:02.216Z,3.26
2023-04-05T07:36:04.710Z,3.67
2023-04-05T07:37:07.150Z,3.48
2023-04-05T07:38:09.180Z,3.46
2023-04-05T07:39:11.079Z,3.60
2023-04-05T07:40:13.305Z,4.43
2023-04-05T07:41:15.964Z,4.30
2023-04-05T07:42:18.180Z,5.24
2023-04-05T07:43:20.511Z,4.38
2023-04-05T07:44:23.067Z,4.89
2023-04-05T07:45:25.625Z,5.07
2023-04-05T07:46:27.981Z,5.15
2023-04-05T07:47:34.438Z,4.92
2023-04-05T07:48:36.560Z,4.99
2023-04-05T07:49:38.417Z,5.59
2023-04-05T07:50:40.733Z,4.93
2023-04-05T07:51:43.380Z,5.21
2023-04-05T07:52:45.437Z,4.73
2023-04-05T07:53:47.461Z,5.15
2023-04-05T07:54:50.460Z,4.62
2023-04-05T07:55:52.942Z,4.46
2023-04-05T07:56:54.954Z,4.73
2023-04-05T07:57:56.952Z,6.09
2023-04-05T07:58:59.328Z,5.15
2023-04-05T08:00:03.432Z,5.81
2023-04-05T08:01:05.885Z,5.42
2023-04-05T08:02:14.650Z,6.22
2023-04-05T08:03:11.770Z,5.10
2023-04-05T08:04:13.918Z,4.93
2023-04-05T08:05:16.980Z,5.25
2023-04-05T08:06:19.656Z,4.26
2023-04-05T08:07:22.380Z,4.49
2023-04-05T08:08:24.739Z,5.70
2023-04-05T08:09:26.644Z,5.04
2023-04-05T08:10:28.882Z,5.25
2023-04-05T08:11:31.046Z,5.75
2023-04-05T08:12:33.643Z,5.37
2023-04-05T08:13:36.015Z,4.66
2023-04-05T08:14:38.535Z,4.77
2023-04-05T08:15:40.458Z,5.90
2023-04-05T08:16:43.394Z,5.15
2023-04-05T08:17:45.490Z,5.46
2023-04-05T08:18:47.641Z,6.03
2023-04-05T08:19:49.744Z,5.65
2023-04-05T08:20:54.143Z,6.35
2023-04-05T08:21:56.033Z,5.80
2023-04-05T08:22:57.976Z,6.13
2023-04-05T08:23:59.940Z,5.85
2023-04-05T08:25:01.940Z,5.53
2023-04-05T08:26:04.463Z,5.37
2023-04-05T08:27:06.486Z,6.34
2023-04-05T08:28:08.388Z,5.26
2023-04-05T08:29:10.999Z,4.99
2023-04-05T08:30:13.769Z,5.99
2023-04-05T08:31:15.765Z,5.23
2023-04-05T08:32:19.535Z,5.63
2023-04-05T08:33:21.529Z,5.64
2023-04-05T08:34:23.633Z,6.31
2023-04-05T08:35:25.766Z,6.08
2023-04-05T08:36:28.474Z,6.39
2023-04-05T08:37:34.315Z,6.22
2023-04-05T08:38:36.771Z,6.13
2023-04-05T08:39:38.840Z,6.18
2023-04-05T08:40:46.524Z,6.27
2023-04-05T08:44:13.139Z,6.56
2023-04-05T08:45:18.516Z,6.06
2023-04-05T08:46:22.157Z,6.30
2023-04-05T08:47:24.936Z,6.46
2023-04-05T08:48:29.345Z,6.34
2023-04-05T08:49:31.636Z,6.71
2023-04-05T08:50:34.078Z,5.65
2023-04-05T08:51:37.748Z,6.01
2023-04-05T08:52:42.709Z,6.29
2023-04-05T08:53:44.828Z,6.17
2023-04-05T08:54:47.372Z,6.22
2023-04-05T08:55:53.239Z,6.35
2023-04-05T08:56:57.314Z,7.64
2023-04-05T08:58:01.211Z,6.79
2023-04-05T08:59:06.899Z,5.94
2023-04-05T09:00:11.456Z,6.62
2023-04-05T09:01:14.823Z,6.65
2023-04-05T09:02:18.970Z,5.74
2023-04-05T09:03:23.804Z,6.87
2023-04-05T09:04:29.824Z,6.52
2023-04-05T09:05:35.295Z,6.58
2023-04-05T09:06:38.211Z,6.58
2023-04-05T09:07:42.421Z,7.15
2023-04-05T09:08:44.728Z,7.86
2023-04-05T09:09:50.493Z,7.22
2023-04-05T09:10:52.537Z,7.05
2023-04-05T09:11:56.758Z,8.42
2023-04-05T09:12:59.688Z,7.68
2023-04-05T09:14:08.365Z,7.51
2023-04-05T09:15:10.915Z,7.58
2023-04-05T09:16:15.988Z,7.81
2023-04-05T09:17:20.885Z,7.58
2023-04-05T09:18:27.068Z,7.55
2023-04-05T09:19:27.046Z,6.85
2023-04-05T09:20:30.177Z,7.51
2023-04-05T09:21:52.964Z,7.19
2023-04-05T09:22:56.695Z,7.82
2023-04-05T09:23:58.754Z,7.12
2023-04-05T09:25:01.236Z,8.23
2023-04-05T09:26:18.139Z,8.45
2023-04-05T09:27:23.798Z,8.01
2023-04-05T09:28:41.966Z,8.69
2023-04-05T09:29:48.925Z,8.62
2023-04-05T09:30:51.383Z,7.98
2023-04-05T09:31:54.440Z,7.97
2023-04-05T09:32:57.247Z,8.66
2023-04-05T09:34:06.041Z,8.62
2023-04-05T09:35:11.854Z,8.34
2023-04-05T09:36:18.402Z,8.17
2023-04-05T09:37:21.557Z,8.17
2023-04-05T09:38:44.755Z,8.13
2023-04-05T09:39:50.133Z,8.27
2023-04-05T09:40:52.679Z,8.37
2023-04-05T09:42:10.174Z,7.59
2023-04-05T09:43:13.737Z,7.90
2023-04-05T09:44:15.752Z,8.29
2023-04-05T09:45:17.771Z,7.93
2023-04-05T09:46:31.608Z,8.23
2023-04-05T09:47:33.844Z,8.73
2023-04-05T09:48:47.126Z,8.69
2023-04-05T09:49:49.306Z,9.33
2023-04-05T09:51:00.892Z,8.77
2023-04-05T09:51:59.606Z,8.91
2023-04-05T09:56:38.717Z,9.38
2023-04-05T09:57:41.712Z,9.40
2023-04-05T09:58:43.691Z,9.64
2023-04-05T09:59:46.689Z,10.73
2023-04-05T10:00:50.231Z,10.19
2023-04-05T10:01:52.479Z,10.74
2023-04-05T10:02:56.103Z,9.77
2023-04-05T10:04:00.200Z,10.13
2023-04-05T10:05:09.593Z,9.68
2023-04-05T10:06:12.277Z,9.88
2023-04-05T10:07:16.525Z,9.09
2023-04-05T10:08:19.029Z,10.12
2023-04-05T10:09:21.492Z,8.97
2023-04-05T10:10:24.300Z,9.32
2023-04-05T10:11:27.890Z,9.87
2023-04-05T10:12:32.803Z,9.03
2023-04-05T10:13:36.061Z,9.56
2023-04-05T10:14:38.392Z,8.89
2023-04-05T10:15:44.283Z,9.39
2023-04-05T10:18:12.016Z,9.00
2023-04-05T10:19:17.768Z,8.59
2023-04-05T10:20:22.964Z,8.79
2023-04-05T10:21:28.758Z,8.56
2023-04-05T10:22:37.226Z,8.78
2023-04-05T10:23:42.948Z,9.60
2023-04-05T10:27:23.839Z,8.91
2023-04-05T10:28:35.797Z,8.62
2023-04-05T10:30:00.173Z,9.89
2023-04-05T10:31:11.454Z,9.21
2023-04-05T10:32:20.364Z,8.92
2023-04-05T10:33:32.158Z,8.42
2023-04-05T10:34:43.686Z,9.17
2023-04-05T10:37:06.914Z,9.64
2023-04-05T10:38:28.556Z,9.87
2023-04-05T10:40:47.186Z,9.51
2023-04-05T10:42:02.642Z,10.73
2023-04-05T10:43:08.442Z,11.11
2023-04-05T10:44:22.573Z,10.71
2023-04-05T10:45:17.947Z,9.71
2023-04-05T10:46:20.531Z,10.09
2023-04-05T10:47:25.012Z,9.38
2023-04-05T10:49:04.579Z,11.20
2023-04-05T10:50:10.614Z,9.98
2023-04-05T10:51:12.975Z,9.83
2023-04-05T10:52:16.909Z,9.64
2023-04-05T10:53:21.958Z,10.10
2023-04-05T10:54:25.022Z,10.04
2023-04-05T10:55:27.745Z,9.49
2023-04-05T10:56:30.772Z,9.96
2023-04-05T10:57:33.731Z,9.93
2023-04-05T10:58:40.616Z,10.87
2023-04-05T10:59:45.808Z,11.08
2023-04-05T11:00:49.787Z,10.35
2023-04-05T11:01:53.566Z,10.32
2023-04-05T11:02:56.240Z,9.78
2023-04-05T11:04:14.153Z,9.36
2023-04-05T11:05:36.396Z,9.81
2023-04-05T11:06:39.778Z,8.91
2023-04-05T11:07:43.654Z,9.56
2023-04-05T11:08:47.098Z,9.85
2023-04-05T11:10:04.641Z,9.33
2023-04-05T11:11:08.205Z,9.23
2023-04-05T11:12:10.166Z,8.89
2023-04-05T11:13:12.745Z,9.44
2023-04-05T11:14:35.621Z,9.65
2023-04-05T11:15:37.856Z,8.22
2023-04-05T11:16:40.468Z,9.90
2023-04-05T11:17:42.535Z,9.49
2023-04-05T11:18:50.925Z,8.69
2023-04-05T11:21:08.591Z,8.95
2023-04-05T11:22:12.509Z,10.34
2023-04-05T11:23:17.596Z,9.42
2023-04-05T11:24:19.635Z,9.21
2023-04-05T11:25:24.123Z,9.35
2023-04-05T11:26:45.384Z,9.61
2023-04-05T11:28:55.292Z,9.54
2023-04-05T11:30:03.205Z,9.48
2023-04-05T11:31:19.884Z,9.35
2023-04-05T11:32:23.030Z,8.93
2023-04-05T11:33:55.684Z,9.37
2023-04-05T11:35:07.398Z,9.83
2023-04-05T11:36:10.515Z,9.32
2023-04-05T11:37:14.863Z,9.57
2023-04-05T11:38:22.692Z,9.77
2023-04-05T11:39:25.596Z,9.13
2023-04-05T11:40:33.982Z,9.83
2023-04-05T11:41:37.328Z,9.45
2023-04-05T11:42:40.506Z,9.13
2023-04-05T11:43:43.964Z,8.86
2023-04-05T11:44:47.682Z,9.15
2023-04-05T11:45:49.981Z,9.64
2023-04-05T11:46:53.751Z,9.69
2023-04-05T11:47:57.268Z,9.75
2023-04-05T11:48:59.463Z,9.81
2023-04-05T11:50:01.796Z,9.59
2023-04-05T11:51:08.739Z,10.19
2023-04-05T11:52:19.127Z,10.99
2023-04-05T11:53:21.168Z,10.73
2023-04-05T11:54:33.315Z,9.81
2023-04-05T11:55:39.113Z,8.66
2023-04-05T11:56:46.439Z,9.11
2023-04-05T11:57:52.134Z,9.91
2023-04-05T12:00:14.357Z,9.52
2023-04-05T12:01:18.128Z,9.29
2023-04-05T12:02:21.455Z,9.51
2023-04-05T12:03:23.635Z,9.61
2023-04-05T12:04:26.919Z,8.89
2023-04-05T12:05:49.080Z,8.25
2023-04-05T12:08:21.398Z,8.74
2023-04-05T12:09:23.293Z,8.70
2023-04-05T12:10:25.456Z,8.49
2023-04-05T12:11:29.303Z,9.06
2023-04-05T12:12:41.957Z,8.25
2023-04-05T12:13:44.934Z,8.51
2023-04-05T12:14:47.082Z,8.07
2023-04-05T12:15:49.292Z,9.26
2023-04-05T12:16:51.443Z,8.61
2023-04-05T12:17:53.395Z,8.60
2023-04-05T12:18:58.297Z,9.80
2023-04-05T12:20:01.174Z,9.22
2023-04-05T12:21:08.269Z,8.89
2023-04-05T12:22:11.010Z,8.82
2023-04-05T12:23:14.249Z,8.36
2023-04-05T12:24:16.411Z,8.90
2023-04-05T12:25:19.780Z,8.58
2023-04-05T12:26:22.500Z,8.68
2023-04-05T12:27:24.700Z,8.89
2023-04-05T12:28:46.820Z,8.01
2023-04-05T12:30:09.456Z,8.87
2023-04-05T12:31:11.588Z,8.99
2023-04-05T12:32:14.292Z,8.18
2023-04-05T12:33:32.846Z,8.99
2023-04-05T12:34:36.150Z,8.22
2023-04-05T12:35:38.610Z,8.81
2023-04-05T12:36:45.246Z,8.98
2023-04-05T12:37:49.826Z,8.88
2023-04-05T12:38:54.128Z,8.12
2023-04-05T12:39:56.229Z,8.19
2023-04-05T12:41:05.686Z,8.15
2023-04-05T12:42:11.361Z,8.99
2023-04-05T12:43:13.269Z,8.42
2023-04-05T12:44:16.230Z,9.19
2023-04-05T12:45:18.764Z,7.99
2023-04-05T12:46:21.030Z,8.39
2023-04-05T12:47:23.111Z,9.13
2023-04-05T12:48:26.807Z,9.03
2023-04-05T12:49:29.615Z,9.88
2023-04-05T12:50:31.603Z,8.53
2023-04-05T12:51:34.511Z,9.77
2023-04-05T12:52:36.761Z,9.29
2023-04-05T12:53:42.509Z,8.76
2023-04-05T12:54:55.176Z,8.24
2023-04-05T12:55:58.262Z,9.48
2023-04-05T12:57:02.092Z,9.14
2023-04-05T12:58:04.636Z,8.48
2023-04-05T12:59:07.122Z,8.76
2023-04-05T13:00:11.246Z,8.59
2023-04-05T13:01:13.232Z,10.04
2023-04-05T13:02:15.329Z,9.39
2023-04-05T13:03:20.092Z,8.38
2023-04-05T13:04:22.485Z,9.20
2023-04-05T13:05:29.731Z,8.93
2023-04-05T13:06:32.583Z,8.65
2023-04-05T13:07:34.464Z,9.24
2023-04-05T13:08:36.368Z,8.38
2023-04-05T13:09:38.405Z,8.97
2023-04-05T13:10:40.767Z,8.63
2023-04-05T13:11:42.671Z,9.18
2023-04-05T13:12:45.816Z,9.03
2023-04-05T13:13:47.923Z,8.71
2023-04-05T13:14:49.789Z,8.05
2023-04-05T13:15:52.680Z,8.63
2023-04-05T13:16:55.301Z,8.05
2023-04-05T13:17:57.301Z,8.73
2023-04-05T13:18:59.316Z,8.51
2023-04-05T13:20:02.010Z,8.27
2023-04-05T13:21:06.473Z,8.98
2023-04-05T13:22:08.369Z,8.89
2023-04-05T13:23:11.025Z,8.34
2023-04-05T13:24:13.160Z,8.35
2023-04-05T13:25:16.060Z,8.29
2023-04-05T13:26:18.149Z,7.47
2023-04-05T13:27:20.427Z,7.39
2023-04-05T13:28:22.342Z,8.51
2023-04-05T13:29:24.214Z,8.87
2023-04-05T13:30:26.377Z,8.93
2023-04-05T13:31:29.506Z,9.77
2023-04-05T13:32:33.114Z,8.58
2023-04-05T13:33:35.240Z,8.33
2023-04-05T13:34:37.245Z,7.73
2023-04-05T13:35:39.315Z,8.19
2023-04-05T13:36:42.011Z,8.33
2023-04-05T13:37:43.989Z,7.95
2023-04-05T13:38:45.996Z,8.95
2023-04-05T13:39:47.997Z,7.71
2023-04-05T13:40:50.075Z,8.13
2023-04-05T13:41:51.964Z,8.11
2023-04-05T13:42:54.038Z,8.20
2023-04-05T13:43:55.910Z,7.91
2023-04-05T13:44:57.879Z,7.43
2023-04-05T13:46:00.099Z,8.25
2023-04-05T13:47:02.141Z,8.33
2023-04-05T13:48:04.733Z,7.37
2023-04-05T13:49:06.800Z,7.56
2023-04-05T13:50:10.216Z,7.19
2023-04-05T13:51:14.250Z,7.90
2023-04-05T13:52:16.420Z,7.53
2023-04-05T13:53:18.293Z,7.94
2023-04-05T13:54:20.204Z,8.45
2023-04-05T13:55:22.084Z,8.77
2023-04-05T13:56:24.084Z,7.88
2023-04-05T13:57:26.434Z,7.77
2023-04-05T13:58:30.233Z,7.29
2023-04-05T13:59:33.647Z,7.53
2023-04-05T14:00:37.683Z,8.25
2023-04-05T14:01:39.722Z,7.96
2023-04-05T14:02:41.861Z,7.33
2023-04-05T14:03:44.849Z,8.13
2023-04-05T14:04:47.059Z,8.38
2023-04-05T14:05:51.229Z,8.68
2023-04-05T14:06:52.944Z,7.29
2023-04-05T14:07:54.824Z,7.72
2023-04-05T14:08:56.737Z,9.33
2023-04-05T14:09:58.826Z,9.47
2023-04-05T14:11:01.053Z,8.77
2023-04-05T14:12:04.160Z,8.03
2023-04-05T14:13:06.116Z,7.96
2023-04-05T14:14:08.012Z,7.88
2023-04-05T14:15:11.857Z,7.48
2023-04-05T14:16:14.113Z,7.49
2023-04-05T14:17:17.334Z,7.27
2023-04-05T14:18:19.203Z,7.73
2023-04-05T14:19:21.856Z,7.43
2023-04-05T14:20:24.254Z,7.21
2023-04-05T14:21:26.759Z,7.34
2023-04-05T14:22:28.800Z,7.72
2023-04-05T14:23:30.811Z,7.35
2023-04-05T14:24:32.944Z,7.48
2023-04-05T14:25:34.822Z,8.03
2023-04-05T14:26:37.636Z,7.74
2023-04-05T14:27:39.685Z,8.73
2023-04-05T14:28:41.612Z,7.97
2023-04-05T14:29:43.595Z,7.59
2023-04-05T14:30:46.543Z,7.83
2023-04-05T14:31:48.425Z,6.79
2023-04-05T14:32:50.391Z,7.32
2023-04-05T14:33:52.323Z,7.72